sensor_id;sensor_type;location;lat;lon;timestamp;temperature;humidity
57242;DHT22;43095;53.302;5.786;2024-02-16T00:01:07;10.80;99.90
57242;DHT22;43095;53.302;5.786;2024-02-16T00:03:34;10.80;99.90
57242;DHT22;43095;53.302;5.786;2024-02-16T00:06:02;10.80;99.90
57242;DHT22;43095;53.302;5.786;2024-02-16T00:08:29;10.80;99.90
57242;DHT22;43095;53.302;5.786;2024-02-16T00:10:57;10.80;99.90
57242;DHT22;43095;53.302;5.786;2024-02-16T00:13:25;10.70;99.90
57242;DHT22;43095;53.302;5.786;2024-02-16T00:15:52;10.70;99.90
57242;DHT22;43095;53.302;5.786;2024-02-16T00:18:19;10.70;99.90
57242;DHT22;43095;53.302;5.786;2024-02-16T00:20:47;10.70;99.90
57242;DHT22;43095;53.302;5.786;2024-02-16T00:23:14;10.70;99.90
57242;DHT22;43095;53.302;5.786;2024-02-16T00:25:41;10.70;99.90
57242;DHT22;43095;53.302;5.786;2024-02-16T00:28:08;10.70;99.90
57242;DHT22;43095;53.302;5.786;2024-02-16T00:30:36;10.60;99.90
57242;DHT22;43095;53.302;5.786;2024-02-16T00:33:03;10.60;99.90
57242;DHT22;43095;53.302;5.786;2024-02-16T00:35:30;10.60;99.90
57242;DHT22;43095;53.302;5.786;2024-02-16T00:38:00;10.50;99.90
57242;DHT22;43095;53.302;5.786;2024-02-16T00:40:27;10.50;99.90
57242;DHT22;43095;53.302;5.786;2024-02-16T00:42:55;10.50;99.90
57242;DHT22;43095;53.302;5.786;2024-02-16T00:45:22;10.50;99.90
57242;DHT22;43095;53.302;5.786;2024-02-16T00:47:49;10.50;99.90
57242;DHT22;43095;53.302;5.786;2024-02-16T00:50:17;10.50;99.90
57242;DHT22;43095;53.302;5.786;2024-02-16T00:52:44;10.40;99.90
57242;DHT22;43095;53.302;5.786;2024-02-16T00:55:13;10.40;99.90
57242;DHT22;43095;53.302;5.786;2024-02-16T00:57:41;10.40;99.90
57242;DHT22;43095;53.302;5.786;2024-02-16T01:00:13;10.40;99.90
57242;DHT22;43095;53.302;5.786;2024-02-16T01:02:43;10.40;99.90
57242;DHT22;43095;53.302;5.786;2024-02-16T01:05:10;10.30;99.90
57242;DHT22;43095;53.302;5.786;2024-02-16T01:07:37;10.30;99.90
57242;DHT22;43095;53.302;5.786;2024-02-16T01:10:06;10.30;99.90
57242;DHT22;43095;53.302;5.786;2024-02-16T01:12:34;10.20;99.90
57242;DHT22;43095;53.302;5.786;2024-02-16T01:15:01;10.20;99.90
57242;DHT22;43095;53.302;5.786;2024-02-16T01:17:36;10.20;99.90
57242;DHT22;43095;53.302;5.786;2024-02-16T01:20:05;10.20;99.90
57242;DHT22;43095;53.302;5.786;2024-02-16T01:22:33;10.20;99.90
57242;DHT22;43095;53.302;5.786;2024-02-16T01:25:00;10.20;99.90
57242;DHT22;43095;53.302;5.786;2024-02-16T01:27:28;10.20;99.90
57242;DHT22;43095;53.302;5.786;2024-02-16T01:29:55;10.10;99.90
57242;DHT22;43095;53.302;5.786;2024-02-16T01:32:22;10.10;99.90
57242;DHT22;43095;53.302;5.786;2024-02-16T01:34:49;10.10;99.90
57242;DHT22;43095;53.302;5.786;2024-02-16T01:37:17;10.10;99.90
57242;DHT22;43095;53.302;5.786;2024-02-16T01:39:45;10.10;99.90
57242;DHT22;43095;53.302;5.786;2024-02-16T01:42:12;10.00;99.90
57242;DHT22;43095;53.302;5.786;2024-02-16T01:44:39;10.10;99.90
57242;DHT22;43095;53.302;5.786;2024-02-16T01:47:07;10.00;99.90
57242;DHT22;43095;53.302;5.786;2024-02-16T01:49:34;10.00;99.90
57242;DHT22;43095;53.302;5.786;2024-02-16T01:52:01;10.00;99.90
57242;DHT22;43095;53.302;5.786;2024-02-16T01:54:29;10.00;99.90
57242;DHT22;43095;53.302;5.786;2024-02-16T01:56:57;10.00;99.90
57242;DHT22;43095;53.302;5.786;2024-02-16T01:59:24;10.00;99.90
57242;DHT22;43095;53.302;5.786;2024-02-16T02:01:52;10.00;99.90
57242;DHT22;43095;53.302;5.786;2024-02-16T02:04:19;9.90;99.90
57242;DHT22;43095;53.302;5.786;2024-02-16T02:06:47;9.90;99.90
57242;DHT22;43095;53.302;5.786;2024-02-16T02:09:14;9.90;99.90
57242;DHT22;43095;53.302;5.786;2024-02-16T02:11:43;9.80;99.90
57242;DHT22;43095;53.302;5.786;2024-02-16T02:14:11;9.80;99.90
57242;DHT22;43095;53.302;5.786;2024-02-16T02:16:38;9.80;99.90
57242;DHT22;43095;53.302;5.786;2024-02-16T02:19:20;9.80;99.90
57242;DHT22;43095;53.302;5.786;2024-02-16T02:21:48;9.80;99.90
57242;DHT22;43095;53.302;5.786;2024-02-16T02:24:15;9.80;99.90
57242;DHT22;43095;53.302;5.786;2024-02-16T02:26:43;9.90;99.90
57242;DHT22;43095;53.302;5.786;2024-02-16T02:29:10;9.90;99.90
57242;DHT22;43095;53.302;5.786;2024-02-16T02:31:37;9.90;99.90
57242;DHT22;43095;53.302;5.786;2024-02-16T02:34:04;9.90;99.90
57242;DHT22;43095;53.302;5.786;2024-02-16T02:36:32;9.90;99.90
57242;DHT22;43095;53.302;5.786;2024-02-16T02:38:59;9.90;99.90
57242;DHT22;43095;53.302;5.786;2024-02-16T02:41:27;10.00;99.90
57242;DHT22;43095;53.302;5.786;2024-02-16T02:43:54;10.00;99.90
57242;DHT22;43095;53.302;5.786;2024-02-16T02:46:23;10.00;99.90
57242;DHT22;43095;53.302;5.786;2024-02-16T02:48:51;10.00;99.90
57242;DHT22;43095;53.302;5.786;2024-02-16T02:51:20;10.00;99.90
57242;DHT22;43095;53.302;5.786;2024-02-16T02:53:48;10.00;99.90
57242;DHT22;43095;53.302;5.786;2024-02-16T02:56:15;10.00;99.90
57242;DHT22;43095;53.302;5.786;2024-02-16T02:58:42;10.00;99.90
57242;DHT22;43095;53.302;5.786;2024-02-16T03:01:09;9.90;99.90
57242;DHT22;43095;53.302;5.786;2024-02-16T03:03:37;9.90;99.90
57242;DHT22;43095;53.302;5.786;2024-02-16T03:06:06;9.80;99.90
57242;DHT22;43095;53.302;5.786;2024-02-16T03:08:35;9.80;99.90
57242;DHT22;43095;53.302;5.786;2024-02-16T03:11:02;9.80;99.90
57242;DHT22;43095;53.302;5.786;2024-02-16T03:13:31;9.70;99.90
57242;DHT22;43095;53.302;5.786;2024-02-16T03:16:00;9.70;99.90
57242;DHT22;43095;53.302;5.786;2024-02-16T03:18:30;9.70;99.90
57242;DHT22;43095;53.302;5.786;2024-02-16T03:20:58;9.70;99.90
57242;DHT22;43095;53.302;5.786;2024-02-16T03:23:26;9.60;99.90
57242;DHT22;43095;53.302;5.786;2024-02-16T03:25:53;9.60;99.90
57242;DHT22;43095;53.302;5.786;2024-02-16T03:28:20;9.60;99.90
57242;DHT22;43095;53.302;5.786;2024-02-16T03:30:47;9.60;99.90
57242;DHT22;43095;53.302;5.786;2024-02-16T03:33:14;9.60;99.90
57242;DHT22;43095;53.302;5.786;2024-02-16T03:35:41;9.60;99.90
57242;DHT22;43095;53.302;5.786;2024-02-16T03:38:09;9.60;99.90
57242;DHT22;43095;53.302;5.786;2024-02-16T03:40:36;9.60;99.90
57242;DHT22;43095;53.302;5.786;2024-02-16T03:43:04;9.60;99.90
57242;DHT22;43095;53.302;5.786;2024-02-16T03:45:31;9.60;99.90
57242;DHT22;43095;53.302;5.786;2024-02-16T03:47:58;9.60;99.90
57242;DHT22;43095;53.302;5.786;2024-02-16T03:50:26;9.60;99.90
57242;DHT22;43095;53.302;5.786;2024-02-16T03:52:53;9.60;99.90
57242;DHT22;43095;53.302;5.786;2024-02-16T03:55:20;9.60;99.90
57242;DHT22;43095;53.302;5.786;2024-02-16T03:57:48;9.60;99.90
57242;DHT22;43095;53.302;5.786;2024-02-16T04:00:15;9.70;99.90
57242;DHT22;43095;53.302;5.786;2024-02-16T04:02:42;9.70;99.90
57242;DHT22;43095;53.302;5.786;2024-02-16T04:05:10;9.70;99.90
57242;DHT22;43095;53.302;5.786;2024-02-16T04:07:37;9.70;99.90
57242;DHT22;43095;53.302;5.786;2024-02-16T04:10:04;9.70;99.90
57242;DHT22;43095;53.302;5.786;2024-02-16T04:12:34;9.70;99.90
57242;DHT22;43095;53.302;5.786;2024-02-16T04:15:01;9.70;99.90
57242;DHT22;43095;53.302;5.786;2024-02-16T04:17:29;9.70;99.90
57242;DHT22;43095;53.302;5.786;2024-02-16T04:19:56;9.70;99.90
57242;DHT22;43095;53.302;5.786;2024-02-16T04:22:23;9.70;99.90
57242;DHT22;43095;53.302;5.786;2024-02-16T04:24:50;9.70;99.90
57242;DHT22;43095;53.302;5.786;2024-02-16T04:27:17;9.60;99.90
57242;DHT22;43095;53.302;5.786;2024-02-16T04:29:45;9.60;99.90
57242;DHT22;43095;53.302;5.786;2024-02-16T04:32:12;9.60;99.90
57242;DHT22;43095;53.302;5.786;2024-02-16T04:34:39;9.60;99.90
57242;DHT22;43095;53.302;5.786;2024-02-16T04:37:06;9.50;99.90
57242;DHT22;43095;53.302;5.786;2024-02-16T04:39:33;9.50;99.90
57242;DHT22;43095;53.302;5.786;2024-02-16T04:42:00;9.50;99.90
57242;DHT22;43095;53.302;5.786;2024-02-16T04:44:28;9.50;99.90
57242;DHT22;43095;53.302;5.786;2024-02-16T04:46:55;9.40;99.90
57242;DHT22;43095;53.302;5.786;2024-02-16T04:49:23;9.40;99.90
57242;DHT22;43095;53.302;5.786;2024-02-16T04:51:50;9.40;99.90
57242;DHT22;43095;53.302;5.786;2024-02-16T04:54:17;9.40;99.90
57242;DHT22;43095;53.302;5.786;2024-02-16T04:56:45;9.40;99.90
57242;DHT22;43095;53.302;5.786;2024-02-16T04:59:12;9.40;99.90
57242;DHT22;43095;53.302;5.786;2024-02-16T05:01:39;9.40;99.90
57242;DHT22;43095;53.302;5.786;2024-02-16T05:04:06;9.50;99.90
57242;DHT22;43095;53.302;5.786;2024-02-16T05:06:39;9.50;99.90
57242;DHT22;43095;53.302;5.786;2024-02-16T05:09:07;9.50;99.90
57242;DHT22;43095;53.302;5.786;2024-02-16T05:11:34;9.40;99.90
57242;DHT22;43095;53.302;5.786;2024-02-16T05:14:01;9.40;99.90
57242;DHT22;43095;53.302;5.786;2024-02-16T05:16:29;9.40;99.90
57242;DHT22;43095;53.302;5.786;2024-02-16T05:18:56;9.40;99.90
57242;DHT22;43095;53.302;5.786;2024-02-16T05:21:26;9.40;99.90
57242;DHT22;43095;53.302;5.786;2024-02-16T05:23:53;9.40;99.90
57242;DHT22;43095;53.302;5.786;2024-02-16T05:26:20;9.40;99.90
57242;DHT22;43095;53.302;5.786;2024-02-16T05:28:47;9.30;99.90
57242;DHT22;43095;53.302;5.786;2024-02-16T05:31:17;9.30;99.90
57242;DHT22;43095;53.302;5.786;2024-02-16T05:33:48;9.20;99.90
57242;DHT22;43095;53.302;5.786;2024-02-16T05:36:17;9.20;99.90
57242;DHT22;43095;53.302;5.786;2024-02-16T05:38:47;9.20;99.90
57242;DHT22;43095;53.302;5.786;2024-02-16T05:41:16;9.20;99.90
57242;DHT22;43095;53.302;5.786;2024-02-16T05:43:44;9.20;99.90
57242;DHT22;43095;53.302;5.786;2024-02-16T05:46:16;9.20;99.90
57242;DHT22;43095;53.302;5.786;2024-02-16T05:48:44;9.20;99.90
57242;DHT22;43095;53.302;5.786;2024-02-16T05:51:13;9.20;99.90
57242;DHT22;43095;53.302;5.786;2024-02-16T05:53:41;9.20;99.90
57242;DHT22;43095;53.302;5.786;2024-02-16T05:56:08;9.20;99.90
57242;DHT22;43095;53.302;5.786;2024-02-16T05:58:37;9.20;99.90
57242;DHT22;43095;53.302;5.786;2024-02-16T06:01:04;9.20;99.90
57242;DHT22;43095;53.302;5.786;2024-02-16T06:03:31;9.20;99.90
57242;DHT22;43095;53.302;5.786;2024-02-16T06:05:58;9.20;99.90
57242;DHT22;43095;53.302;5.786;2024-02-16T06:08:26;9.20;99.90
57242;DHT22;43095;53.302;5.786;2024-02-16T06:10:56;9.20;99.90
57242;DHT22;43095;53.302;5.786;2024-02-16T06:13:23;9.20;99.90
57242;DHT22;43095;53.302;5.786;2024-02-16T06:15:50;9.20;99.90
57242;DHT22;43095;53.302;5.786;2024-02-16T06:18:18;9.20;99.90
57242;DHT22;43095;53.302;5.786;2024-02-16T06:20:46;9.20;99.90
57242;DHT22;43095;53.302;5.786;2024-02-16T06:23:13;9.20;99.90
57242;DHT22;43095;53.302;5.786;2024-02-16T06:25:44;9.20;99.90
57242;DHT22;43095;53.302;5.786;2024-02-16T06:28:11;9.10;99.90
57242;DHT22;43095;53.302;5.786;2024-02-16T06:30:38;9.10;99.90
57242;DHT22;43095;53.302;5.786;2024-02-16T06:33:05;9.10;99.90
57242;DHT22;43095;53.302;5.786;2024-02-16T06:35:33;9.00;99.90
57242;DHT22;43095;53.302;5.786;2024-02-16T06:38:00;9.00;99.90
57242;DHT22;43095;53.302;5.786;2024-02-16T06:40:27;9.00;99.90
57242;DHT22;43095;53.302;5.786;2024-02-16T06:42:54;9.00;99.90
57242;DHT22;43095;53.302;5.786;2024-02-16T06:45:21;9.00;99.90
57242;DHT22;43095;53.302;5.786;2024-02-16T06:47:49;8.90;99.90
57242;DHT22;43095;53.302;5.786;2024-02-16T06:50:16;9.00;99.90
57242;DHT22;43095;53.302;5.786;2024-02-16T06:52:43;8.90;99.90
57242;DHT22;43095;53.302;5.786;2024-02-16T06:55:11;8.90;99.90
57242;DHT22;43095;53.302;5.786;2024-02-16T06:57:38;8.90;99.90
57242;DHT22;43095;53.302;5.786;2024-02-16T07:00:06;9.00;99.90
57242;DHT22;43095;53.302;5.786;2024-02-16T07:02:35;9.00;99.90
57242;DHT22;43095;53.302;5.786;2024-02-16T07:05:03;9.00;99.90
57242;DHT22;43095;53.302;5.786;2024-02-16T07:07:30;9.00;99.90
57242;DHT22;43095;53.302;5.786;2024-02-16T07:10:01;9.00;99.90
57242;DHT22;43095;53.302;5.786;2024-02-16T07:12:29;9.00;99.90
57242;DHT22;43095;53.302;5.786;2024-02-16T07:14:56;9.00;99.90
57242;DHT22;43095;53.302;5.786;2024-02-16T07:17:23;9.00;99.90
57242;DHT22;43095;53.302;5.786;2024-02-16T07:19:50;9.00;99.90
57242;DHT22;43095;53.302;5.786;2024-02-16T07:22:18;9.00;99.90
57242;DHT22;43095;53.302;5.786;2024-02-16T07:24:45;9.00;99.90
57242;DHT22;43095;53.302;5.786;2024-02-16T07:27:12;9.00;99.90
57242;DHT22;43095;53.302;5.786;2024-02-16T07:29:40;9.00;99.90
57242;DHT22;43095;53.302;5.786;2024-02-16T07:32:07;9.00;99.90
57242;DHT22;43095;53.302;5.786;2024-02-16T07:34:34;9.00;99.90
57242;DHT22;43095;53.302;5.786;2024-02-16T07:37:01;9.00;99.90
57242;DHT22;43095;53.302;5.786;2024-02-16T07:39:28;9.00;99.90
57242;DHT22;43095;53.302;5.786;2024-02-16T07:41:56;9.10;99.90
57242;DHT22;43095;53.302;5.786;2024-02-16T07:44:23;9.20;99.90
57242;DHT22;43095;53.302;5.786;2024-02-16T07:46:51;9.20;99.90
57242;DHT22;43095;53.302;5.786;2024-02-16T07:49:19;9.20;99.90
57242;DHT22;43095;53.302;5.786;2024-02-16T07:51:46;9.30;99.90
57242;DHT22;43095;53.302;5.786;2024-02-16T07:54:14;9.40;99.90
57242;DHT22;43095;53.302;5.786;2024-02-16T07:56:41;9.40;99.90
57242;DHT22;43095;53.302;5.786;2024-02-16T07:59:08;9.40;99.90
57242;DHT22;43095;53.302;5.786;2024-02-16T08:01:35;9.50;99.90
57242;DHT22;43095;53.302;5.786;2024-02-16T08:04:02;9.50;99.90
57242;DHT22;43095;53.302;5.786;2024-02-16T08:06:32;9.50;99.90
57242;DHT22;43095;53.302;5.786;2024-02-16T08:09:00;9.50;99.90
57242;DHT22;43095;53.302;5.786;2024-02-16T08:11:27;9.60;99.90
57242;DHT22;43095;53.302;5.786;2024-02-16T08:13:55;9.60;99.90
57242;DHT22;43095;53.302;5.786;2024-02-16T08:16:27;9.60;99.90
57242;DHT22;43095;53.302;5.786;2024-02-16T08:18:54;9.60;99.90
57242;DHT22;43095;53.302;5.786;2024-02-16T08:21:22;9.60;99.90
57242;DHT22;43095;53.302;5.786;2024-02-16T08:23:49;9.70;99.90
57242;DHT22;43095;53.302;5.786;2024-02-16T08:26:16;9.70;99.90
57242;DHT22;43095;53.302;5.786;2024-02-16T08:28:44;9.70;99.90
57242;DHT22;43095;53.302;5.786;2024-02-16T08:31:18;9.70;99.90
57242;DHT22;43095;53.302;5.786;2024-02-16T08:33:46;9.70;99.90
57242;DHT22;43095;53.302;5.786;2024-02-16T08:36:14;9.70;99.90
57242;DHT22;43095;53.302;5.786;2024-02-16T08:38:42;9.70;99.90
57242;DHT22;43095;53.302;5.786;2024-02-16T08:41:09;9.70;99.90
57242;DHT22;43095;53.302;5.786;2024-02-16T08:43:36;9.80;99.90
57242;DHT22;43095;53.302;5.786;2024-02-16T08:46:03;9.70;99.90
57242;DHT22;43095;53.302;5.786;2024-02-16T08:48:31;9.80;99.90
57242;DHT22;43095;53.302;5.786;2024-02-16T08:50:58;9.80;99.90
57242;DHT22;43095;53.302;5.786;2024-02-16T08:53:25;9.80;99.90
57242;DHT22;43095;53.302;5.786;2024-02-16T08:55:52;9.80;99.90
57242;DHT22;43095;53.302;5.786;2024-02-16T08:58:19;9.90;99.90
57242;DHT22;43095;53.302;5.786;2024-02-16T09:00:46;10.00;99.90
57242;DHT22;43095;53.302;5.786;2024-02-16T09:03:15;10.00;99.90
57242;DHT22;43095;53.302;5.786;2024-02-16T09:05:43;10.00;99.90
57242;DHT22;43095;53.302;5.786;2024-02-16T09:08:11;10.00;99.90
57242;DHT22;43095;53.302;5.786;2024-02-16T09:10:38;10.00;99.90
57242;DHT22;43095;53.302;5.786;2024-02-16T09:13:05;10.00;99.90
57242;DHT22;43095;53.302;5.786;2024-02-16T09:15:32;10.00;99.90
57242;DHT22;43095;53.302;5.786;2024-02-16T09:18:00;10.10;99.90
57242;DHT22;43095;53.302;5.786;2024-02-16T09:20:27;10.10;99.90
57242;DHT22;43095;53.302;5.786;2024-02-16T09:22:55;10.10;99.90
57242;DHT22;43095;53.302;5.786;2024-02-16T09:25:22;10.20;99.90
57242;DHT22;43095;53.302;5.786;2024-02-16T09:27:50;10.30;99.90
57242;DHT22;43095;53.302;5.786;2024-02-16T09:30:17;10.30;99.90
57242;DHT22;43095;53.302;5.786;2024-02-16T09:32:44;10.30;99.90
57242;DHT22;43095;53.302;5.786;2024-02-16T09:35:12;10.40;99.90
57242;DHT22;43095;53.302;5.786;2024-02-16T09:37:39;10.40;99.90
57242;DHT22;43095;53.302;5.786;2024-02-16T09:40:07;10.40;99.90
57242;DHT22;43095;53.302;5.786;2024-02-16T09:42:38;10.50;99.90
57242;DHT22;43095;53.302;5.786;2024-02-16T09:45:07;10.50;99.90
57242;DHT22;43095;53.302;5.786;2024-02-16T09:47:36;10.50;99.90
57242;DHT22;43095;53.302;5.786;2024-02-16T09:50:05;10.50;99.90
57242;DHT22;43095;53.302;5.786;2024-02-16T09:52:33;10.50;99.90
57242;DHT22;43095;53.302;5.786;2024-02-16T09:55:00;10.50;99.90
57242;DHT22;43095;53.302;5.786;2024-02-16T09:57:28;10.50;99.90
57242;DHT22;43095;53.302;5.786;2024-02-16T09:59:55;10.50;99.90
57242;DHT22;43095;53.302;5.786;2024-02-16T10:02:22;10.40;99.90
57242;DHT22;43095;53.302;5.786;2024-02-16T10:04:50;10.40;99.90
57242;DHT22;43095;53.302;5.786;2024-02-16T10:07:17;10.30;99.90
57242;DHT22;43095;53.302;5.786;2024-02-16T10:09:45;10.30;99.90
57242;DHT22;43095;53.302;5.786;2024-02-16T10:12:18;10.20;99.90
57242;DHT22;43095;53.302;5.786;2024-02-16T10:14:54;10.20;99.90
57242;DHT22;43095;53.302;5.786;2024-02-16T10:17:22;10.10;99.90
57242;DHT22;43095;53.302;5.786;2024-02-16T10:19:57;10.10;99.90
57242;DHT22;43095;53.302;5.786;2024-02-16T10:22:26;10.00;99.90
57242;DHT22;43095;53.302;5.786;2024-02-16T10:24:53;10.00;99.90
57242;DHT22;43095;53.302;5.786;2024-02-16T10:27:20;10.00;99.90
57242;DHT22;43095;53.302;5.786;2024-02-16T10:29:48;9.90;99.90
57242;DHT22;43095;53.302;5.786;2024-02-16T10:32:18;9.80;99.90
57242;DHT22;43095;53.302;5.786;2024-02-16T10:34:47;9.80;99.90
57242;DHT22;43095;53.302;5.786;2024-02-16T10:37:16;9.70;99.90
57242;DHT22;43095;53.302;5.786;2024-02-16T10:39:45;9.70;99.90
57242;DHT22;43095;53.302;5.786;2024-02-16T10:42:14;9.70;99.90
57242;DHT22;43095;53.302;5.786;2024-02-16T10:44:42;9.60;99.90
57242;DHT22;43095;53.302;5.786;2024-02-16T10:47:10;9.60;99.90
57242;DHT22;43095;53.302;5.786;2024-02-16T10:49:37;9.50;99.90
57242;DHT22;43095;53.302;5.786;2024-02-16T10:52:06;9.50;99.90
57242;DHT22;43095;53.302;5.786;2024-02-16T10:54:34;9.40;99.90
57242;DHT22;43095;53.302;5.786;2024-02-16T10:57:08;9.40;99.90
57242;DHT22;43095;53.302;5.786;2024-02-16T10:59:43;9.40;99.90
57242;DHT22;43095;53.302;5.786;2024-02-16T11:02:12;9.40;99.90
57242;DHT22;43095;53.302;5.786;2024-02-16T11:04:44;9.40;99.90
57242;DHT22;43095;53.302;5.786;2024-02-16T11:07:17;9.40;99.90
57242;DHT22;43095;53.302;5.786;2024-02-16T11:09:46;9.40;99.90
57242;DHT22;43095;53.302;5.786;2024-02-16T11:12:14;9.40;99.90
57242;DHT22;43095;53.302;5.786;2024-02-16T11:14:45;9.30;99.90
57242;DHT22;43095;53.302;5.786;2024-02-16T11:17:15;9.30;99.90
57242;DHT22;43095;53.302;5.786;2024-02-16T11:19:48;9.30;99.90
57242;DHT22;43095;53.302;5.786;2024-02-16T11:22:20;9.20;99.90
57242;DHT22;43095;53.302;5.786;2024-02-16T11:24:53;9.20;99.90
57242;DHT22;43095;53.302;5.786;2024-02-16T11:27:26;9.20;99.90
57242;DHT22;43095;53.302;5.786;2024-02-16T11:29:54;9.20;99.90
57242;DHT22;43095;53.302;5.786;2024-02-16T11:32:24;9.20;99.90
57242;DHT22;43095;53.302;5.786;2024-02-16T11:34:52;9.20;99.90
57242;DHT22;43095;53.302;5.786;2024-02-16T11:37:20;9.20;99.90
57242;DHT22;43095;53.302;5.786;2024-02-16T11:39:47;9.10;99.90
57242;DHT22;43095;53.302;5.786;2024-02-16T11:42:22;9.10;99.90
57242;DHT22;43095;53.302;5.786;2024-02-16T11:44:54;9.00;99.90
57242;DHT22;43095;53.302;5.786;2024-02-16T11:47:25;9.00;99.90
57242;DHT22;43095;53.302;5.786;2024-02-16T11:50:15;9.00;99.90
57242;DHT22;43095;53.302;5.786;2024-02-16T11:52:54;9.00;99.90
57242;DHT22;43095;53.302;5.786;2024-02-16T11:55:31;9.00;99.90
57242;DHT22;43095;53.302;5.786;2024-02-16T11:58:03;9.00;99.90
57242;DHT22;43095;53.302;5.786;2024-02-16T12:00:37;9.00;99.90
57242;DHT22;43095;53.302;5.786;2024-02-16T12:03:09;9.00;99.90
57242;DHT22;43095;53.302;5.786;2024-02-16T12:05:37;9.00;99.90
57242;DHT22;43095;53.302;5.786;2024-02-16T12:08:16;9.00;99.90
57242;DHT22;43095;53.302;5.786;2024-02-16T12:10:50;9.00;99.90
57242;DHT22;43095;53.302;5.786;2024-02-16T12:13:21;9.00;99.90
57242;DHT22;43095;53.302;5.786;2024-02-16T12:16:01;9.00;99.90
57242;DHT22;43095;53.302;5.786;2024-02-16T12:18:30;9.00;99.90
57242;DHT22;43095;53.302;5.786;2024-02-16T12:21:06;9.00;99.90
57242;DHT22;43095;53.302;5.786;2024-02-16T12:23:39;9.00;99.90
57242;DHT22;43095;53.302;5.786;2024-02-16T12:26:06;9.00;99.90
57242;DHT22;43095;53.302;5.786;2024-02-16T12:28:37;9.10;99.90
57242;DHT22;43095;53.302;5.786;2024-02-16T12:31:08;9.10;99.90
57242;DHT22;43095;53.302;5.786;2024-02-16T12:33:46;9.20;99.90
57242;DHT22;43095;53.302;5.786;2024-02-16T12:36:14;9.20;99.90
57242;DHT22;43095;53.302;5.786;2024-02-16T12:38:42;9.20;99.90
57242;DHT22;43095;53.302;5.786;2024-02-16T12:41:15;9.20;99.90
57242;DHT22;43095;53.302;5.786;2024-02-16T12:43:44;9.20;99.90
57242;DHT22;43095;53.302;5.786;2024-02-16T12:46:11;9.20;99.90
57242;DHT22;43095;53.302;5.786;2024-02-16T12:48:40;9.20;99.90
57242;DHT22;43095;53.302;5.786;2024-02-16T12:51:11;9.20;99.90
57242;DHT22;43095;53.302;5.786;2024-02-16T12:53:39;9.10;99.90
57242;DHT22;43095;53.302;5.786;2024-02-16T12:56:10;9.10;99.90
57242;DHT22;43095;53.302;5.786;2024-02-16T12:58:38;9.00;99.90
57242;DHT22;43095;53.302;5.786;2024-02-16T13:01:09;9.00;99.90
57242;DHT22;43095;53.302;5.786;2024-02-16T13:03:52;9.00;99.90
57242;DHT22;43095;53.302;5.786;2024-02-16T13:06:20;9.00;99.90
57242;DHT22;43095;53.302;5.786;2024-02-16T13:08:59;9.00;99.90
57242;DHT22;43095;53.302;5.786;2024-02-16T13:11:29;9.00;99.90
57242;DHT22;43095;53.302;5.786;2024-02-16T13:13:59;9.00;99.90
57242;DHT22;43095;53.302;5.786;2024-02-16T13:16:27;9.00;99.90
57242;DHT22;43095;53.302;5.786;2024-02-16T13:18:54;9.00;99.90
57242;DHT22;43095;53.302;5.786;2024-02-16T13:21:27;9.00;99.90
57242;DHT22;43095;53.302;5.786;2024-02-16T13:24:03;8.90;99.90
57242;DHT22;43095;53.302;5.786;2024-02-16T13:26:33;8.90;99.90
57242;DHT22;43095;53.302;5.786;2024-02-16T13:29:07;8.90;99.90
57242;DHT22;43095;53.302;5.786;2024-02-16T13:31:35;9.00;99.90
57242;DHT22;43095;53.302;5.786;2024-02-16T13:34:06;8.90;99.90
57242;DHT22;43095;53.302;5.786;2024-02-16T13:36:34;8.90;99.90
57242;DHT22;43095;53.302;5.786;2024-02-16T13:39:01;8.90;99.90
57242;DHT22;43095;53.302;5.786;2024-02-16T13:41:29;8.90;99.90
57242;DHT22;43095;53.302;5.786;2024-02-16T13:43:56;8.90;99.90
57242;DHT22;43095;53.302;5.786;2024-02-16T13:46:24;8.90;99.90
57242;DHT22;43095;53.302;5.786;2024-02-16T13:48:51;8.90;99.90
57242;DHT22;43095;53.302;5.786;2024-02-16T13:51:19;8.90;99.90
57242;DHT22;43095;53.302;5.786;2024-02-16T13:53:46;8.90;99.90
57242;DHT22;43095;53.302;5.786;2024-02-16T13:56:18;8.90;99.90
57242;DHT22;43095;53.302;5.786;2024-02-16T13:58:46;8.90;99.90
57242;DHT22;43095;53.302;5.786;2024-02-16T14:01:16;8.90;99.90
57242;DHT22;43095;53.302;5.786;2024-02-16T14:03:51;8.90;99.90
57242;DHT22;43095;53.302;5.786;2024-02-16T14:06:19;8.90;99.90
57242;DHT22;43095;53.302;5.786;2024-02-16T14:08:47;8.90;99.90
57242;DHT22;43095;53.302;5.786;2024-02-16T14:11:16;9.00;99.90
57242;DHT22;43095;53.302;5.786;2024-02-16T14:13:43;9.00;99.90
57242;DHT22;43095;53.302;5.786;2024-02-16T14:16:10;9.00;99.90
57242;DHT22;43095;53.302;5.786;2024-02-16T14:18:38;9.00;99.90
57242;DHT22;43095;53.302;5.786;2024-02-16T14:21:06;9.00;99.90
57242;DHT22;43095;53.302;5.786;2024-02-16T14:23:33;9.00;99.90
57242;DHT22;43095;53.302;5.786;2024-02-16T14:26:01;9.00;99.90
57242;DHT22;43095;53.302;5.786;2024-02-16T14:28:29;9.00;99.90
57242;DHT22;43095;53.302;5.786;2024-02-16T14:31:01;9.00;99.90
57242;DHT22;43095;53.302;5.786;2024-02-16T14:33:32;9.00;99.90
57242;DHT22;43095;53.302;5.786;2024-02-16T14:36:04;9.00;99.90
57242;DHT22;43095;53.302;5.786;2024-02-16T14:38:32;9.00;99.90
57242;DHT22;43095;53.302;5.786;2024-02-16T14:41:04;9.00;99.90
57242;DHT22;43095;53.302;5.786;2024-02-16T14:43:35;9.10;99.90
57242;DHT22;43095;53.302;5.786;2024-02-16T14:46:05;9.20;99.90
57242;DHT22;43095;53.302;5.786;2024-02-16T14:48:32;9.20;99.90
57242;DHT22;43095;53.302;5.786;2024-02-16T14:51:00;9.20;99.90
57242;DHT22;43095;53.302;5.786;2024-02-16T14:53:32;9.10;99.90
57242;DHT22;43095;53.302;5.786;2024-02-16T14:56:00;9.20;99.90
57242;DHT22;43095;53.302;5.786;2024-02-16T14:58:30;9.20;99.90
57242;DHT22;43095;53.302;5.786;2024-02-16T15:01:01;9.20;99.90
57242;DHT22;43095;53.302;5.786;2024-02-16T15:03:28;9.20;99.90
57242;DHT22;43095;53.302;5.786;2024-02-16T15:05:58;9.20;99.90
57242;DHT22;43095;53.302;5.786;2024-02-16T15:08:25;9.20;99.90
57242;DHT22;43095;53.302;5.786;2024-02-16T15:10:54;9.20;99.90
57242;DHT22;43095;53.302;5.786;2024-02-16T15:13:21;9.30;99.90
57242;DHT22;43095;53.302;5.786;2024-02-16T15:15:51;9.40;99.90
57242;DHT22;43095;53.302;5.786;2024-02-16T15:18:19;9.40;99.90
57242;DHT22;43095;53.302;5.786;2024-02-16T15:20:47;9.40;99.90
57242;DHT22;43095;53.302;5.786;2024-02-16T15:23:18;9.40;99.90
57242;DHT22;43095;53.302;5.786;2024-02-16T15:25:45;9.60;99.90
57242;DHT22;43095;53.302;5.786;2024-02-16T15:28:13;9.90;99.90
57242;DHT22;43095;53.302;5.786;2024-02-16T15:30:44;10.00;99.90
57242;DHT22;43095;53.302;5.786;2024-02-16T15:33:14;10.00;99.90
57242;DHT22;43095;53.302;5.786;2024-02-16T15:35:45;10.00;99.90
57242;DHT22;43095;53.302;5.786;2024-02-16T15:38:12;10.20;99.90
57242;DHT22;43095;53.302;5.786;2024-02-16T15:40:40;10.40;99.90
57242;DHT22;43095;53.302;5.786;2024-02-16T15:43:07;10.30;99.90
57242;DHT22;43095;53.302;5.786;2024-02-16T15:45:38;10.20;99.90
57242;DHT22;43095;53.302;5.786;2024-02-16T15:48:08;10.10;99.90
57242;DHT22;43095;53.302;5.786;2024-02-16T15:50:37;10.00;99.90